sensor_id;sensor_type;location;lat;lon;timestamp;temperature;humidity
5304;DHT22;2674;49.722;10.892;2022-10-31T00:01:31;9.90;99.90
5304;DHT22;2674;49.722;10.892;2022-10-31T00:03:58;9.90;99.90
5304;DHT22;2674;49.722;10.892;2022-10-31T00:06:24;9.90;99.90
5304;DHT22;2674;49.722;10.892;2022-10-31T00:08:55;9.80;99.90
5304;DHT22;2674;49.722;10.892;2022-10-31T00:11:21;9.80;99.90
5304;DHT22;2674;49.722;10.892;2022-10-31T00:13:47;9.80;99.90
5304;DHT22;2674;49.722;10.892;2022-10-31T00:16:18;9.80;99.90
5304;DHT22;2674;49.722;10.892;2022-10-31T00:18:49;9.80;99.90
5304;DHT22;2674;49.722;10.892;2022-10-31T00:21:15;9.80;99.90
5304;DHT22;2674;49.722;10.892;2022-10-31T00:23:41;9.80;99.90
5304;DHT22;2674;49.722;10.892;2022-10-31T00:26:07;9.80;99.90
5304;DHT22;2674;49.722;10.892;2022-10-31T00:28:32;9.80;99.90
5304;DHT22;2674;49.722;10.892;2022-10-31T00:31:06;9.80;99.90
5304;DHT22;2674;49.722;10.892;2022-10-31T00:33:34;9.80;99.90
5304;DHT22;2674;49.722;10.892;2022-10-31T00:36:03;9.80;99.90
5304;DHT22;2674;49.722;10.892;2022-10-31T00:38:29;9.80;99.90
5304;DHT22;2674;49.722;10.892;2022-10-31T00:40:54;9.80;99.90
5304;DHT22;2674;49.722;10.892;2022-10-31T00:43:20;9.80;99.90
5304;DHT22;2674;49.722;10.892;2022-10-31T00:45:46;9.80;99.90
5304;DHT22;2674;49.722;10.892;2022-10-31T00:48:12;9.80;99.90
5304;DHT22;2674;49.722;10.892;2022-10-31T00:50:39;9.80;99.90
5304;DHT22;2674;49.722;10.892;2022-10-31T00:53:05;9.70;99.90
5304;DHT22;2674;49.722;10.892;2022-10-31T00:55:31;9.70;99.90
5304;DHT22;2674;49.722;10.892;2022-10-31T00:57:57;9.60;99.90
5304;DHT22;2674;49.722;10.892;2022-10-31T01:00:23;9.60;99.90
5304;DHT22;2674;49.722;10.892;2022-10-31T01:02:49;9.60;99.90
5304;DHT22;2674;49.722;10.892;2022-10-31T01:05:14;9.60;99.90
5304;DHT22;2674;49.722;10.892;2022-10-31T01:07:41;9.50;99.90
5304;DHT22;2674;49.722;10.892;2022-10-31T01:10:08;9.50;99.90
5304;DHT22;2674;49.722;10.892;2022-10-31T01:12:41;9.50;99.90
5304;DHT22;2674;49.722;10.892;2022-10-31T01:15:08;9.50;99.90
5304;DHT22;2674;49.722;10.892;2022-10-31T01:17:34;9.40;99.90
5304;DHT22;2674;49.722;10.892;2022-10-31T01:20:01;9.40;99.90
5304;DHT22;2674;49.722;10.892;2022-10-31T01:22:27;9.40;99.90
5304;DHT22;2674;49.722;10.892;2022-10-31T01:24:53;9.30;99.90
5304;DHT22;2674;49.722;10.892;2022-10-31T01:27:19;9.30;99.90
5304;DHT22;2674;49.722;10.892;2022-10-31T01:29:45;9.30;99.90
5304;DHT22;2674;49.722;10.892;2022-10-31T01:32:11;9.30;99.90
5304;DHT22;2674;49.722;10.892;2022-10-31T01:34:37;9.30;99.90
5304;DHT22;2674;49.722;10.892;2022-10-31T01:37:02;9.30;99.90
5304;DHT22;2674;49.722;10.892;2022-10-31T01:39:28;9.30;99.90
5304;DHT22;2674;49.722;10.892;2022-10-31T01:41:54;9.40;99.90
5304;DHT22;2674;49.722;10.892;2022-10-31T01:46:49;9.40;99.90
5304;DHT22;2674;49.722;10.892;2022-10-31T01:52:33;9.50;99.90
5304;DHT22;2674;49.722;10.892;2022-10-31T01:54:41;9.50;99.90
5304;DHT22;2674;49.722;10.892;2022-10-31T01:57:10;9.50;99.90
5304;DHT22;2674;49.722;10.892;2022-10-31T01:59:41;9.50;99.90
5304;DHT22;2674;49.722;10.892;2022-10-31T02:02:09;9.60;99.90
5304;DHT22;2674;49.722;10.892;2022-10-31T02:04:39;9.60;99.90
5304;DHT22;2674;49.722;10.892;2022-10-31T02:07:13;9.60;99.90
5304;DHT22;2674;49.722;10.892;2022-10-31T02:09:40;9.50;99.90
5304;DHT22;2674;49.722;10.892;2022-10-31T02:12:07;9.50;99.90
5304;DHT22;2674;49.722;10.892;2022-10-31T02:14:35;9.50;99.90
5304;DHT22;2674;49.722;10.892;2022-10-31T02:17:01;9.40;99.90
5304;DHT22;2674;49.722;10.892;2022-10-31T02:19:49;9.40;99.90
5304;DHT22;2674;49.722;10.892;2022-10-31T02:30:30;9.30;99.90
5304;DHT22;2674;49.722;10.892;2022-10-31T02:35:57;9.20;99.90
5304;DHT22;2674;49.722;10.892;2022-10-31T02:38:52;9.20;99.90
5304;DHT22;2674;49.722;10.892;2022-10-31T02:44:25;9.20;99.90
5304;DHT22;2674;49.722;10.892;2022-10-31T02:46:57;9.20;99.90
5304;DHT22;2674;49.722;10.892;2022-10-31T02:49:51;9.10;99.90
5304;DHT22;2674;49.722;10.892;2022-10-31T02:52:31;9.10;99.90
5304;DHT22;2674;49.722;10.892;2022-10-31T02:54:58;9.00;99.90
5304;DHT22;2674;49.722;10.892;2022-10-31T02:57:32;9.00;99.90
5304;DHT22;2674;49.722;10.892;2022-10-31T03:00:03;9.00;99.90
5304;DHT22;2674;49.722;10.892;2022-10-31T03:02:46;9.00;99.90
5304;DHT22;2674;49.722;10.892;2022-10-31T03:05:51;9.10;99.90
5304;DHT22;2674;49.722;10.892;2022-10-31T03:11:08;9.10;99.90
5304;DHT22;2674;49.722;10.892;2022-10-31T03:13:41;9.10;99.90
5304;DHT22;2674;49.722;10.892;2022-10-31T03:19:34;9.10;99.90
5304;DHT22;2674;49.722;10.892;2022-10-31T03:22:24;9.10;99.90
5304;DHT22;2674;49.722;10.892;2022-10-31T03:24:52;9.10;99.90
5304;DHT22;2674;49.722;10.892;2022-10-31T03:27:24;9.10;99.90
5304;DHT22;2674;49.722;10.892;2022-10-31T03:29:52;9.10;99.90
5304;DHT22;2674;49.722;10.892;2022-10-31T03:34:54;9.10;99.90
5304;DHT22;2674;49.722;10.892;2022-10-31T03:37:22;9.10;99.90
5304;DHT22;2674;49.722;10.892;2022-10-31T03:39:50;9.00;99.90
5304;DHT22;2674;49.722;10.892;2022-10-31T03:42:23;9.00;99.90
5304;DHT22;2674;49.722;10.892;2022-10-31T03:47:46;8.90;99.90
5304;DHT22;2674;49.722;10.892;2022-10-31T03:50:14;8.90;99.90
5304;DHT22;2674;49.722;10.892;2022-10-31T03:53:06;8.90;99.90
5304;DHT22;2674;49.722;10.892;2022-10-31T03:55:55;8.90;99.90
5304;DHT22;2674;49.722;10.892;2022-10-31T03:58:32;8.80;99.90
5304;DHT22;2674;49.722;10.892;2022-10-31T04:01:01;8.80;99.90
5304;DHT22;2674;49.722;10.892;2022-10-31T04:03:30;8.80;99.90
5304;DHT22;2674;49.722;10.892;2022-10-31T04:06:01;8.80;99.90
5304;DHT22;2674;49.722;10.892;2022-10-31T04:08:31;8.70;99.90
5304;DHT22;2674;49.722;10.892;2022-10-31T04:10:59;8.80;99.90
5304;DHT22;2674;49.722;10.892;2022-10-31T04:13:29;8.80;99.90
5304;DHT22;2674;49.722;10.892;2022-10-31T04:15:57;8.80;99.90
5304;DHT22;2674;49.722;10.892;2022-10-31T04:18:23;8.70;99.90
5304;DHT22;2674;49.722;10.892;2022-10-31T04:21:02;8.80;99.90
5304;DHT22;2674;49.722;10.892;2022-10-31T04:23:29;8.70;99.90
5304;DHT22;2674;49.722;10.892;2022-10-31T04:25:55;8.70;99.90
5304;DHT22;2674;49.722;10.892;2022-10-31T04:28:20;8.70;99.90
5304;DHT22;2674;49.722;10.892;2022-10-31T04:30:46;8.70;99.90
5304;DHT22;2674;49.722;10.892;2022-10-31T04:33:12;8.70;99.90
5304;DHT22;2674;49.722;10.892;2022-10-31T04:35:38;8.80;99.90
5304;DHT22;2674;49.722;10.892;2022-10-31T04:38:04;8.80;99.90
5304;DHT22;2674;49.722;10.892;2022-10-31T04:40:29;8.70;99.90
5304;DHT22;2674;49.722;10.892;2022-10-31T04:42:55;8.80;99.90
5304;DHT22;2674;49.722;10.892;2022-10-31T04:45:21;8.70;99.90
5304;DHT22;2674;49.722;10.892;2022-10-31T04:47:47;8.70;99.90
5304;DHT22;2674;49.722;10.892;2022-10-31T04:50:13;8.70;99.90
5304;DHT22;2674;49.722;10.892;2022-10-31T04:52:40;8.70;99.90
5304;DHT22;2674;49.722;10.892;2022-10-31T04:55:06;8.70;99.90
5304;DHT22;2674;49.722;10.892;2022-10-31T04:57:32;8.70;99.90
5304;DHT22;2674;49.722;10.892;2022-10-31T05:00:05;8.70;99.90
5304;DHT22;2674;49.722;10.892;2022-10-31T05:02:31;8.80;99.90
5304;DHT22;2674;49.722;10.892;2022-10-31T05:04:57;8.80;99.90
5304;DHT22;2674;49.722;10.892;2022-10-31T05:07:23;8.80;99.90
5304;DHT22;2674;49.722;10.892;2022-10-31T05:09:49;8.90;99.90
5304;DHT22;2674;49.722;10.892;2022-10-31T05:12:15;8.90;99.90
5304;DHT22;2674;49.722;10.892;2022-10-31T05:14:41;9.00;99.90
5304;DHT22;2674;49.722;10.892;2022-10-31T05:17:06;9.00;99.90
5304;DHT22;2674;49.722;10.892;2022-10-31T05:19:32;9.00;99.90
5304;DHT22;2674;49.722;10.892;2022-10-31T05:21:58;9.10;99.90
5304;DHT22;2674;49.722;10.892;2022-10-31T05:24:24;9.10;99.90
5304;DHT22;2674;49.722;10.892;2022-10-31T05:26:50;9.10;99.90
5304;DHT22;2674;49.722;10.892;2022-10-31T05:29:16;9.10;99.90
5304;DHT22;2674;49.722;10.892;2022-10-31T05:31:41;9.00;99.90
5304;DHT22;2674;49.722;10.892;2022-10-31T05:34:07;9.10;99.90
5304;DHT22;2674;49.722;10.892;2022-10-31T05:36:33;9.10;99.90
5304;DHT22;2674;49.722;10.892;2022-10-31T05:38:59;9.10;99.90
5304;DHT22;2674;49.722;10.892;2022-10-31T05:41:25;9.10;99.90
5304;DHT22;2674;49.722;10.892;2022-10-31T05:43:51;9.00;99.90
5304;DHT22;2674;49.722;10.892;2022-10-31T05:46:16;9.00;99.90
5304;DHT22;2674;49.722;10.892;2022-10-31T05:48:42;9.00;99.90
5304;DHT22;2674;49.722;10.892;2022-10-31T05:51:08;9.00;99.90
5304;DHT22;2674;49.722;10.892;2022-10-31T05:53:34;9.00;99.90
5304;DHT22;2674;49.722;10.892;2022-10-31T05:56:00;9.00;99.90
5304;DHT22;2674;49.722;10.892;2022-10-31T05:58:25;8.90;99.90
5304;DHT22;2674;49.722;10.892;2022-10-31T06:00:52;8.90;99.90
5304;DHT22;2674;49.722;10.892;2022-10-31T06:03:18;8.90;99.90
5304;DHT22;2674;49.722;10.892;2022-10-31T06:05:44;8.90;99.90
5304;DHT22;2674;49.722;10.892;2022-10-31T06:08:10;8.90;99.90
5304;DHT22;2674;49.722;10.892;2022-10-31T06:10:36;8.90;99.90
5304;DHT22;2674;49.722;10.892;2022-10-31T06:13:01;8.90;99.90
5304;DHT22;2674;49.722;10.892;2022-10-31T06:15:27;8.90;99.90
5304;DHT22;2674;49.722;10.892;2022-10-31T06:18:04;8.90;99.90
5304;DHT22;2674;49.722;10.892;2022-10-31T06:20:31;8.90;99.90
5304;DHT22;2674;49.722;10.892;2022-10-31T06:22:57;9.00;99.90
5304;DHT22;2674;49.722;10.892;2022-10-31T06:25:23;9.00;99.90
5304;DHT22;2674;49.722;10.892;2022-10-31T06:27:49;9.00;99.90
5304;DHT22;2674;49.722;10.892;2022-10-31T06:30:15;9.00;99.90
5304;DHT22;2674;49.722;10.892;2022-10-31T06:32:41;9.00;99.90
5304;DHT22;2674;49.722;10.892;2022-10-31T06:35:07;9.00;99.90
5304;DHT22;2674;49.722;10.892;2022-10-31T06:37:33;9.00;99.90
5304;DHT22;2674;49.722;10.892;2022-10-31T06:39:59;9.00;99.90
5304;DHT22;2674;49.722;10.892;2022-10-31T06:42:25;9.00;99.90
5304;DHT22;2674;49.722;10.892;2022-10-31T06:44:50;9.00;99.90
5304;DHT22;2674;49.722;10.892;2022-10-31T06:47:16;9.00;99.90
5304;DHT22;2674;49.722;10.892;2022-10-31T06:49:42;9.10;99.90
5304;DHT22;2674;49.722;10.892;2022-10-31T06:52:08;9.20;99.90
5304;DHT22;2674;49.722;10.892;2022-10-31T06:54:34;9.20;99.90
5304;DHT22;2674;49.722;10.892;2022-10-31T06:57:00;9.30;99.90
5304;DHT22;2674;49.722;10.892;2022-10-31T06:59:26;9.30;99.90
5304;DHT22;2674;49.722;10.892;2022-10-31T07:01:51;9.30;99.90
5304;DHT22;2674;49.722;10.892;2022-10-31T07:04:18;9.30;99.90
5304;DHT22;2674;49.722;10.892;2022-10-31T07:06:44;9.30;99.90
5304;DHT22;2674;49.722;10.892;2022-10-31T07:09:10;9.30;99.90
5304;DHT22;2674;49.722;10.892;2022-10-31T07:11:36;9.30;99.90
5304;DHT22;2674;49.722;10.892;2022-10-31T07:14:01;9.30;99.90
5304;DHT22;2674;49.722;10.892;2022-10-31T07:16:27;9.30;99.90
5304;DHT22;2674;49.722;10.892;2022-10-31T07:18:53;9.30;99.90
5304;DHT22;2674;49.722;10.892;2022-10-31T07:21:19;9.40;99.90
5304;DHT22;2674;49.722;10.892;2022-10-31T07:23:48;9.40;99.90
5304;DHT22;2674;49.722;10.892;2022-10-31T07:26:14;9.40;99.90
5304;DHT22;2674;49.722;10.892;2022-10-31T07:28:40;9.40;99.90
5304;DHT22;2674;49.722;10.892;2022-10-31T07:31:06;9.50;99.90
5304;DHT22;2674;49.722;10.892;2022-10-31T07:33:31;9.60;99.90
5304;DHT22;2674;49.722;10.892;2022-10-31T07:35:57;9.60;99.90
5304;DHT22;2674;49.722;10.892;2022-10-31T07:38:23;9.60;99.90
5304;DHT22;2674;49.722;10.892;2022-10-31T07:40:50;9.60;99.90
5304;DHT22;2674;49.722;10.892;2022-10-31T07:43:19;9.70;99.90
5304;DHT22;2674;49.722;10.892;2022-10-31T07:45:54;9.70;99.90
5304;DHT22;2674;49.722;10.892;2022-10-31T07:48:20;9.80;99.90
5304;DHT22;2674;49.722;10.892;2022-10-31T07:50:46;9.90;99.90
5304;DHT22;2674;49.722;10.892;2022-10-31T07:53:13;9.90;99.90
5304;DHT22;2674;49.722;10.892;2022-10-31T07:55:39;10.00;99.90
5304;DHT22;2674;49.722;10.892;2022-10-31T07:58:07;10.10;99.90
5304;DHT22;2674;49.722;10.892;2022-10-31T08:00:35;10.20;99.90
5304;DHT22;2674;49.722;10.892;2022-10-31T08:03:03;10.30;99.90
5304;DHT22;2674;49.722;10.892;2022-10-31T08:05:31;10.40;99.90
5304;DHT22;2674;49.722;10.892;2022-10-31T08:07:58;10.40;99.90
5304;DHT22;2674;49.722;10.892;2022-10-31T08:10:24;10.60;99.90
5304;DHT22;2674;49.722;10.892;2022-10-31T08:13:02;10.80;99.90
5304;DHT22;2674;49.722;10.892;2022-10-31T08:15:29;11.10;99.90
5304;DHT22;2674;49.722;10.892;2022-10-31T08:17:55;11.10;99.90
5304;DHT22;2674;49.722;10.892;2022-10-31T08:20:21;11.20;99.90
5304;DHT22;2674;49.722;10.892;2022-10-31T08:23:02;11.30;99.90
5304;DHT22;2674;49.722;10.892;2022-10-31T08:25:30;11.40;99.90
5304;DHT22;2674;49.722;10.892;2022-10-31T08:27:56;11.50;99.90
5304;DHT22;2674;49.722;10.892;2022-10-31T08:30:27;11.60;99.90
5304;DHT22;2674;49.722;10.892;2022-10-31T08:33:12;11.60;99.90
5304;DHT22;2674;49.722;10.892;2022-10-31T08:35:38;11.70;99.90
5304;DHT22;2674;49.722;10.892;2022-10-31T08:38:05;11.80;99.90
5304;DHT22;2674;49.722;10.892;2022-10-31T08:40:32;11.80;99.90
5304;DHT22;2674;49.722;10.892;2022-10-31T08:43:06;11.80;99.90
5304;DHT22;2674;49.722;10.892;2022-10-31T08:45:34;11.90;99.90
5304;DHT22;2674;49.722;10.892;2022-10-31T08:48:01;11.80;99.90
5304;DHT22;2674;49.722;10.892;2022-10-31T08:50:29;11.80;99.90
5304;DHT22;2674;49.722;10.892;2022-10-31T09:25:33;12.20;99.90
5304;DHT22;2674;49.722;10.892;2022-10-31T09:28:01;12.20;99.90
5304;DHT22;2674;49.722;10.892;2022-10-31T09:30:28;12.20;99.90
5304;DHT22;2674;49.722;10.892;2022-10-31T09:32:59;12.10;99.90
5304;DHT22;2674;49.722;10.892;2022-10-31T09:35:26;12.10;99.90
5304;DHT22;2674;49.722;10.892;2022-10-31T09:37:59;12.10;99.90
5304;DHT22;2674;49.722;10.892;2022-10-31T09:40:44;12.20;99.90
5304;DHT22;2674;49.722;10.892;2022-10-31T09:46:00;12.30;99.90
5304;DHT22;2674;49.722;10.892;2022-10-31T09:48:31;12.30;99.90
5304;DHT22;2674;49.722;10.892;2022-10-31T09:51:40;12.40;99.90
5304;DHT22;2674;49.722;10.892;2022-10-31T09:54:18;12.40;99.90
5304;DHT22;2674;49.722;10.892;2022-10-31T09:56:45;12.40;99.90
5304;DHT22;2674;49.722;10.892;2022-10-31T09:59:24;12.50;99.90
5304;DHT22;2674;49.722;10.892;2022-10-31T10:02:00;12.50;99.90
5304;DHT22;2674;49.722;10.892;2022-10-31T10:04:40;12.60;99.90
5304;DHT22;2674;49.722;10.892;2022-10-31T10:32:24;13.60;99.90
5304;DHT22;2674;49.722;10.892;2022-10-31T10:35:53;13.70;99.90
5304;DHT22;2674;49.722;10.892;2022-10-31T10:38:40;13.80;99.90
5304;DHT22;2674;49.722;10.892;2022-10-31T11:19:15;14.80;99.90
5304;DHT22;2674;49.722;10.892;2022-10-31T11:21:42;14.90;99.90
5304;DHT22;2674;49.722;10.892;2022-10-31T11:24:18;14.90;99.90
5304;DHT22;2674;49.722;10.892;2022-10-31T11:26:47;15.00;99.90
5304;DHT22;2674;49.722;10.892;2022-10-31T11:31:44;15.10;99.90
5304;DHT22;2674;49.722;10.892;2022-10-31T11:34:27;15.20;99.90
5304;DHT22;2674;49.722;10.892;2022-10-31T11:36:54;15.20;99.90
5304;DHT22;2674;49.722;10.892;2022-10-31T11:39:24;15.20;99.90
5304;DHT22;2674;49.722;10.892;2022-10-31T11:41:52;15.30;99.90
5304;DHT22;2674;49.722;10.892;2022-10-31T11:46:54;15.40;99.90
5304;DHT22;2674;49.722;10.892;2022-10-31T11:49:23;15.40;99.90
5304;DHT22;2674;49.722;10.892;2022-10-31T11:51:53;15.40;99.90
5304;DHT22;2674;49.722;10.892;2022-10-31T11:54:23;15.50;99.90
5304;DHT22;2674;49.722;10.892;2022-10-31T11:56:51;15.50;99.90
5304;DHT22;2674;49.722;10.892;2022-10-31T11:59:26;15.50;99.90
5304;DHT22;2674;49.722;10.892;2022-10-31T12:01:55;15.60;99.90
5304;DHT22;2674;49.722;10.892;2022-10-31T12:04:38;15.70;99.90
5304;DHT22;2674;49.722;10.892;2022-10-31T12:07:06;15.80;99.90
5304;DHT22;2674;49.722;10.892;2022-10-31T12:09:36;15.90;99.90
5304;DHT22;2674;49.722;10.892;2022-10-31T12:17:49;16.10;99.90
5304;DHT22;2674;49.722;10.892;2022-10-31T12:22:56;16.30;99.90
5304;DHT22;2674;49.722;10.892;2022-10-31T12:25:34;16.50;99.90
5304;DHT22;2674;49.722;10.892;2022-10-31T12:34:26;16.60;99.90
5304;DHT22;2674;49.722;10.892;2022-10-31T12:39:58;16.70;99.90
5304;DHT22;2674;49.722;10.892;2022-10-31T12:48:10;16.70;99.90
5304;DHT22;2674;49.722;10.892;2022-10-31T12:56:11;16.60;99.90
5304;DHT22;2674;49.722;10.892;2022-10-31T12:58:47;16.60;99.90
5304;DHT22;2674;49.722;10.892;2022-10-31T13:01:24;16.50;99.90
5304;DHT22;2674;49.722;10.892;2022-10-31T13:06:48;16.60;99.90
5304;DHT22;2674;49.722;10.892;2022-10-31T13:09:25;16.50;99.90
5304;DHT22;2674;49.722;10.892;2022-10-31T13:12:02;16.50;99.90
5304;DHT22;2674;49.722;10.892;2022-10-31T13:17:02;16.40;99.90
5304;DHT22;2674;49.722;10.892;2022-10-31T13:19:41;16.50;99.90
5304;DHT22;2674;49.722;10.892;2022-10-31T13:22:17;16.50;99.90
5304;DHT22;2674;49.722;10.892;2022-10-31T13:27:35;16.50;99.90
5304;DHT22;2674;49.722;10.892;2022-10-31T13:33:25;16.60;99.90
5304;DHT22;2674;49.722;10.892;2022-10-31T13:40:54;16.60;99.90
5304;DHT22;2674;49.722;10.892;2022-10-31T13:46:26;16.60;99.90
5304;DHT22;2674;49.722;10.892;2022-10-31T13:49:00;16.50;99.90
5304;DHT22;2674;49.722;10.892;2022-10-31T13:51:31;16.50;99.90
5304;DHT22;2674;49.722;10.892;2022-10-31T13:53:58;16.50;99.90
5304;DHT22;2674;49.722;10.892;2022-10-31T13:56:30;16.50;99.90
5304;DHT22;2674;49.722;10.892;2022-10-31T13:59:03;16.50;99.90
5304;DHT22;2674;49.722;10.892;2022-10-31T14:01:32;16.50;99.90
5304;DHT22;2674;49.722;10.892;2022-10-31T14:04:05;16.40;99.90
5304;DHT22;2674;49.722;10.892;2022-10-31T14:06:44;16.40;99.90
5304;DHT22;2674;49.722;10.892;2022-10-31T14:11:52;16.40;99.90
5304;DHT22;2674;49.722;10.892;2022-10-31T14:14:19;16.30;99.90
5304;DHT22;2674;49.722;10.892;2022-10-31T14:16:52;16.30;99.90
5304;DHT22;2674;49.722;10.892;2022-10-31T14:19:20;16.20;99.90
5304;DHT22;2674;49.722;10.892;2022-10-31T14:21:50;16.20;99.90
5304;DHT22;2674;49.722;10.892;2022-10-31T14:29:49;16.00;99.90
5304;DHT22;2674;49.722;10.892;2022-10-31T14:32:24;16.10;99.90
5304;DHT22;2674;49.722;10.892;2022-10-31T14:34:56;16.00;99.90
5304;DHT22;2674;49.722;10.892;2022-10-31T14:37:35;15.90;99.90
5304;DHT22;2674;49.722;10.892;2022-10-31T14:40:35;15.90;99.90
5304;DHT22;2674;49.722;10.892;2022-10-31T14:51:28;15.70;99.90
5304;DHT22;2674;49.722;10.892;2022-10-31T14:53:56;15.70;99.90
5304;DHT22;2674;49.722;10.892;2022-10-31T14:56:32;15.70;99.90
5304;DHT22;2674;49.722;10.892;2022-10-31T14:59:08;15.60;99.90
5304;DHT22;2674;49.722;10.892;2022-10-31T15:01:36;15.60;99.90
5304;DHT22;2674;49.722;10.892;2022-10-31T15:04:17;15.50;99.90
5304;DHT22;2674;49.722;10.892;2022-10-31T15:06:46;15.50;99.90
5304;DHT22;2674;49.722;10.892;2022-10-31T15:09:30;15.50;99.90
5304;DHT22;2674;49.722;10.892;2022-10-31T15:11:59;15.40;99.90
5304;DHT22;2674;49.722;10.892;2022-10-31T15:14:30;15.40;99.90
5304;DHT22;2674;49.722;10.892;2022-10-31T15:17:02;15.30;99.90
5304;DHT22;2674;49.722;10.892;2022-10-31T15:19:30;15.30;99.90
5304;DHT22;2674;49.722;10.892;2022-10-31T15:21:58;15.20;99.90
5304;DHT22;2674;49.722;10.892;2022-10-31T15:24:35;15.20;99.90
5304;DHT22;2674;49.722;10.892;2022-10-31T15:27:02;15.10;99.90
5304;DHT22;2674;49.722;10.892;2022-10-31T15:29:29;15.10;99.90
5304;DHT22;2674;49.722;10.892;2022-10-31T15:32:19;15.00;99.90
5304;DHT22;2674;49.722;10.892;2022-10-31T15:34:46;15.00;99.90
5304;DHT22;2674;49.722;10.892;2022-10-31T15:37:17;15.00;99.90
5304;DHT22;2674;49.722;10.892;2022-10-31T15:39:44;14.90;99.90
5304;DHT22;2674;49.722;10.892;2022-10-31T15:42:32;14.90;99.90
5304;DHT22;2674;49.722;10.892;2022-10-31T15:45:27;14.90;99.90
5304;DHT22;2674;49.722;10.892;2022-10-31T15:48:17;14.80;99.90
5304;DHT22;2674;49.722;10.892;2022-10-31T15:51:02;14.80;99.90
5304;DHT22;2674;49.722;10.892;2022-10-31T15:53:47;14.70;99.90
5304;DHT22;2674;49.722;10.892;2022-10-31T15:56:21;14.60;99.90
5304;DHT22;2674;49.722;10.892;2022-10-31T15:58:49;14.60;99.90
5304;DHT22;2674;49.722;10.892;2022-10-31T16:01:23;14.50;99.90
5304;DHT22;2674;49.722;10.892;2022-10-31T16:04:46;14.50;99.90
5304;DHT22;2674;49.722;10.892;2022-10-31T16:07:13;14.40;99.90
5304;DHT22;2674;49.722;10.892;2022-10-31T16:10:22;14.40;99.90
5304;DHT22;2674;49.722;10.892;2022-10-31T16:12:49;14.30;99.90
5304;DHT22;2674;49.722;10.892;2022-10-31T16:15:16;14.30;99.90
5304;DHT22;2674;49.722;10.892;2022-10-31T16:17:46;14.20;99.90
5304;DHT22;2674;49.722;10.892;2022-10-31T16:20:25;14.20;99.90
5304;DHT22;2674;49.722;10.892;2022-10-31T16:22:53;14.10;99.90
5304;DHT22;2674;49.722;10.892;2022-10-31T16:25:26;14.10;99.90
5304;DHT22;2674;49.722;10.892;2022-10-31T16:27:57;14.10;99.90
5304;DHT22;2674;49.722;10.892;2022-10-31T16:30:37;14.00;99.90
5304;DHT22;2674;49.722;10.892;2022-10-31T16:33:19;14.00;99.90
5304;DHT22;2674;49.722;10.892;2022-10-31T16:35:45;14.00;99.90
5304;DHT22;2674;49.722;10.892;2022-10-31T16:38:11;13.90;99.90
5304;DHT22;2674;49.722;10.892;2022-10-31T16:40:40;13.80;99.90
5304;DHT22;2674;49.722;10.892;2022-10-31T16:43:12;13.90;99.90
5304;DHT22;2674;49.722;10.892;2022-10-31T16:45:52;13.80;99.90
5304;DHT22;2674;49.722;10.892;2022-10-31T16:48:20;13.80;99.90
5304;DHT22;2674;49.722;10.892;2022-10-31T16:50:49;13.80;99.90
5304;DHT22;2674;49.722;10.892;2022-10-31T16:53:16;13.80;99.90
5304;DHT22;2674;49.722;10.892;2022-10-31T16:55:57;13.70;99.90
5304;DHT22;2674;49.722;10.892;2022-10-31T16:58:25;13.70;99.90
5304;DHT22;2674;49.722;10.892;2022-10-31T17:00:53;13.60;99.90
5304;DHT22;2674;49.722;10.892;2022-10-31T17:03:19;13.40;99.90
5304;DHT22;2674;49.722;10.892;2022-10-31T17:06:00;13.40;99.90
5304;DHT22;2674;49.722;10.892;2022-10-31T17:08:26;13.30;99.90
5304;DHT22;2674;49.722;10.892;2022-10-31T17:10:54;13.20;99.90
5304;DHT22;2674;49.722;10.892;2022-10-31T17:13:28;13.20;99.90
5304;DHT22;2674;49.722;10.892;2022-10-31T17:15:57;13.10;99.90
5304;DHT22;2674;49.722;10.892;2022-10-31T17:18:24;13.00;99.90
5304;DHT22;2674;49.722;10.892;2022-10-31T17:20:50;13.00;99.90
5304;DHT22;2674;49.722;10.892;2022-10-31T17:23:20;13.00;99.90
5304;DHT22;2674;49.722;10.892;2022-10-31T17:25:46;12.90;99.90
5304;DHT22;2674;49.722;10.892;2022-10-31T17:28:13;12.80;99.90
5304;DHT22;2674;49.722;10.892;2022-10-31T17:30:41;12.70;99.90
5304;DHT22;2674;49.722;10.892;2022-10-31T17:33:12;12.70;99.90
5304;DHT22;2674;49.722;10.892;2022-10-31T17:35:40;12.60;99.90
5304;DHT22;2674;49.722;10.892;2022-10-31T17:38:07;12.60;99.90
5304;DHT22;2674;49.722;10.892;2022-10-31T17:40:33;12.60;99.90
5304;DHT22;2674;49.722;10.892;2022-10-31T17:43:01;12.50;99.90
5304;DHT22;2674;49.722;10.892;2022-10-31T17:45:27;12.50;99.90
5304;DHT22;2674;49.722;10.892;2022-10-31T17:47:53;12.50;99.90
5304;DHT22;2674;49.722;10.892;2022-10-31T17:50:24;12.50;99.90
5304;DHT22;2674;49.722;10.892;2022-10-31T17:52:52;12.50;99.90
5304;DHT22;2674;49.722;10.892;2022-10-31T17:55:18;12.50;99.90
5304;DHT22;2674;49.722;10.892;2022-10-31T17:57:45;12.60;99.90
5304;DHT22;2674;49.722;10.892;2022-10-31T18:00:20;12.60;99.90
5304;DHT22;2674;49.722;10.892;2022-10-31T18:02:48;12.50;99.90
5304;DHT22;2674;49.722;10.892;2022-10-31T18:05:29;12.40;99.90
5304;DHT22;2674;49.722;10.892;2022-10-31T18:07:55;12.30;99.90
5304;DHT22;2674;49.722;10.892;2022-10-31T18:10:21;12.20;99.90
5304;DHT22;2674;49.722;10.892;2022-10-31T18:12:47;12.20;99.90
5304;DHT22;2674;49.722;10.892;2022-10-31T18:15:14;12.20;99.90
5304;DHT22;2674;49.722;10.892;2022-10-31T18:17:40;12.10;99.90
5304;DHT22;2674;49.722;10.892;2022-10-31T18:20:07;12.10;99.90
5304;DHT22;2674;49.722;10.892;2022-10-31T18:22:33;12.00;99.90
5304;DHT22;2674;49.722;10.892;2022-10-31T18:24:59;11.90;99.90
5304;DHT22;2674;49.722;10.892;2022-10-31T18:27:24;11.90;99.90
5304;DHT22;2674;49.722;10.892;2022-10-31T18:29:51;11.90;99.90
5304;DHT22;2674;49.722;10.892;2022-10-31T18:32:17;11.80;99.90
5304;DHT22;2674;49.722;10.892;2022-10-31T18:34:43;11.80;99.90
5304;DHT22;2674;49.722;10.892;2022-10-31T18:37:12;11.80;99.90
5304;DHT22;2674;49.722;10.892;2022-10-31T18:39:37;11.80;99.90
5304;DHT22;2674;49.722;10.892;2022-10-31T18:42:07;11.70;99.90
5304;DHT22;2674;49.722;10.892;2022-10-31T18:44:32;11.70;99.90
5304;DHT22;2674;49.722;10.892;2022-10-31T18:46:58;11.70;99.90
5304;DHT22;2674;49.722;10.892;2022-10-31T18:49:24;11.60;99.90
5304;DHT22;2674;49.722;10.892;2022-10-31T18:51:50;11.60;99.90
5304;DHT22;2674;49.722;10.892;2022-10-31T18:54:16;11.60;99.90
5304;DHT22;2674;49.722;10.892;2022-10-31T18:56:43;11.60;99.90
5304;DHT22;2674;49.722;10.892;2022-10-31T18:59:10;11.50;99.90
5304;DHT22;2674;49.722;10.892;2022-10-31T19:01:36;11.50;99.90
5304;DHT22;2674;49.722;10.892;2022-10-31T19:04:02;11.40;99.90
5304;DHT22;2674;49.722;10.892;2022-10-31T19:06:48;11.40;99.90
5304;DHT22;2674;49.722;10.892;2022-10-31T19:09:14;11.40;99.90
5304;DHT22;2674;49.722;10.892;2022-10-31T19:11:40;11.40;99.90
5304;DHT22;2674;49.722;10.892;2022-10-31T19:14:06;11.30;99.90
5304;DHT22;2674;49.722;10.892;2022-10-31T19:16:35;11.30;99.90
5304;DHT22;2674;49.722;10.892;2022-10-31T19:19:01;11.30;99.90
5304;DHT22;2674;49.722;10.892;2022-10-31T19:21:27;11.20;99.90
5304;DHT22;2674;49.722;10.892;2022-10-31T19:23:55;11.20;99.90
5304;DHT22;2674;49.722;10.892;2022-10-31T19:26:23;11.20;99.90
5304;DHT22;2674;49.722;10.892;2022-10-31T19:28:53;11.20;99.90
5304;DHT22;2674;49.722;10.892;2022-10-31T19:31:19;11.10;99.90